createdAt,value
2022-09-02T00:00:09.869Z,8.00
2022-09-02T00:02:57.952Z,6.80
2022-09-02T00:05:26.145Z,6.10
2022-09-02T00:07:55.109Z,7.00
2022-09-02T00:10:23.415Z,6.80
2022-09-02T00:12:51.625Z,6.50
2022-09-02T00:15:19.977Z,6.10
2022-09-02T00:17:49.309Z,6.50
2022-09-02T00:20:19.284Z,6.30
2022-09-02T00:22:47.513Z,6.90
2022-09-02T00:25:15.995Z,7.00
2022-09-02T00:27:43.949Z,6.20
2022-09-02T00:30:12.779Z,5.70
2022-09-02T00:32:40.878Z,6.40
2022-09-02T00:35:10.146Z,6.80
2022-09-02T00:37:38.693Z,6.50
2022-09-02T00:40:08.285Z,6.00
2022-09-02T00:42:36.200Z,7.50
2022-09-02T00:45:07.076Z,6.10
2022-09-02T00:47:36.989Z,6.80
2022-09-02T00:50:09.816Z,6.70
2022-09-02T00:52:49.003Z,7.40
2022-09-02T00:55:22.226Z,6.10
2022-09-02T00:58:01.763Z,6.80
2022-09-02T01:00:35.288Z,6.50
2022-09-02T01:03:07.100Z,6.80
2022-09-02T01:05:43.630Z,5.90
2022-09-02T01:08:15.396Z,6.10
2022-09-02T01:10:43.687Z,6.00
2022-09-02T01:13:15.651Z,5.90
2022-09-02T01:15:48.789Z,4.90
2022-09-02T01:18:25.070Z,5.30
2022-09-02T01:20:53.132Z,4.60
2022-09-02T01:23:21.876Z,4.80
2022-09-02T01:25:49.916Z,5.10
2022-09-02T01:28:19.840Z,4.80
2022-09-02T01:30:54.370Z,4.40
2022-09-02T01:33:25.391Z,3.70
2022-09-02T01:35:54.763Z,4.40
2022-09-02T01:38:23.850Z,3.80
2022-09-02T01:40:52.857Z,3.50
2022-09-02T01:43:25.107Z,3.80
2022-09-02T01:45:55.971Z,4.10
2022-09-02T01:48:25.457Z,3.70
2022-09-02T01:50:58.812Z,3.60
2022-09-02T01:53:27.891Z,4.50
2022-09-02T01:55:56.457Z,3.80
2022-09-02T01:58:24.929Z,3.50
2022-09-02T02:00:55.794Z,3.80
2022-09-02T02:03:25.466Z,3.80
2022-09-02T02:05:54.345Z,3.50
2022-09-02T02:08:23.826Z,3.30
2022-09-02T02:10:52.244Z,3.70
2022-09-02T02:13:20.298Z,3.50
2022-09-02T02:15:48.456Z,3.20
2022-09-02T02:18:17.427Z,3.40
2022-09-02T02:20:45.378Z,3.40
2022-09-02T02:23:14.009Z,3.10
2022-09-02T02:25:42.557Z,3.20
2022-09-02T02:28:10.701Z,3.00
2022-09-02T02:30:39.224Z,3.20
2022-09-02T02:33:08.447Z,2.80
2022-09-02T02:35:36.460Z,3.30
2022-09-02T02:38:04.636Z,3.00
2022-09-02T02:40:33.198Z,3.10
2022-09-02T02:43:01.300Z,3.30
2022-09-02T02:45:29.672Z,3.30
2022-09-02T02:47:59.129Z,3.20
2022-09-02T02:50:27.846Z,2.80
2022-09-02T02:52:56.530Z,2.80
2022-09-02T02:55:26.324Z,2.50
2022-09-02T02:57:54.726Z,2.70
2022-09-02T03:00:25.886Z,2.60
2022-09-02T03:03:04.646Z,2.70
2022-09-02T03:05:35.792Z,3.00
2022-09-02T03:08:07.130Z,2.60
2022-09-02T03:10:36.917Z,2.40
2022-09-02T03:13:05.850Z,2.40
2022-09-02T03:15:34.110Z,2.90
2022-09-02T03:18:03.280Z,3.00
2022-09-02T03:20:31.759Z,2.40
2022-09-02T03:23:03.942Z,2.40
2022-09-02T03:25:35.978Z,1.90
2022-09-02T03:28:12.195Z,2.60
2022-09-02T03:30:41.777Z,2.20
2022-09-02T03:33:10.526Z,2.20
2022-09-02T03:35:42.302Z,2.10
2022-09-02T03:38:12.563Z,2.30
2022-09-02T03:40:41.983Z,2.00
2022-09-02T03:43:09.953Z,2.30
2022-09-02T03:45:41.740Z,2.10
2022-09-02T03:48:14.902Z,2.10
2022-09-02T03:50:45.137Z,1.90
2022-09-02T03:53:19.645Z,2.40
2022-09-02T03:55:50.598Z,1.90
2022-09-02T03:58:19.937Z,2.10
2022-09-02T04:00:52.584Z,2.00
2022-09-02T04:03:22.411Z,2.10
2022-09-02T04:05:52.646Z,2.00
2022-09-02T04:08:22.303Z,2.20
2022-09-02T04:10:51.587Z,1.90
2022-09-02T04:13:20.089Z,2.10
2022-09-02T04:15:49.560Z,1.90
2022-09-02T04:18:19.070Z,2.50
2022-09-02T04:20:47.480Z,2.00
2022-09-02T04:23:16.554Z,1.90
2022-09-02T04:25:45.204Z,2.00
2022-09-02T04:28:13.507Z,1.90
2022-09-02T04:30:43.212Z,1.80
2022-09-02T04:33:13.937Z,1.90
2022-09-02T04:35:45.605Z,1.60
2022-09-02T04:38:18.396Z,1.60
2022-09-02T04:40:48.469Z,1.80
2022-09-02T04:43:18.347Z,1.70
2022-09-02T04:45:47.295Z,1.60
2022-09-02T04:48:16.678Z,2.00
2022-09-02T04:50:47.840Z,1.40
2022-09-02T04:53:16.389Z,1.70
2022-09-02T04:55:44.761Z,1.80
2022-09-02T04:58:13.174Z,1.50
2022-09-02T05:00:43.127Z,1.40
2022-09-02T05:03:13.230Z,1.60
2022-09-02T05:05:42.416Z,1.50
2022-09-02T05:08:13.336Z,1.50
2022-09-02T05:10:42.258Z,1.60
2022-09-02T05:13:10.774Z,1.80
2022-09-02T05:15:41.067Z,1.60
2022-09-02T05:18:10.521Z,1.50
2022-09-02T05:20:43.201Z,1.80
2022-09-02T05:23:13.278Z,1.80
2022-09-02T05:25:43.946Z,1.50
2022-09-02T05:28:12.831Z,1.60
2022-09-02T05:30:42.729Z,1.60
2022-09-02T05:33:13.523Z,1.50
2022-09-02T05:35:45.455Z,1.50
2022-09-02T05:38:15.471Z,1.50
2022-09-02T05:40:43.508Z,1.40
2022-09-02T05:43:11.585Z,1.70
2022-09-02T05:45:40.078Z,1.30
2022-09-02T05:48:28.280Z,1.60
2022-09-02T05:50:59.720Z,1.50
2022-09-02T05:53:29.333Z,1.70
2022-09-02T05:55:59.033Z,1.70
2022-09-02T05:58:27.012Z,1.70
2022-09-02T06:00:55.249Z,1.90
2022-09-02T06:03:23.289Z,1.80
2022-09-02T06:06:02.974Z,1.90
2022-09-02T06:08:36.687Z,1.90
2022-09-02T06:11:07.759Z,2.10
2022-09-02T06:13:39.150Z,1.90
2022-09-02T06:16:12.363Z,2.30
2022-09-02T06:18:43.911Z,2.10
2022-09-02T06:21:12.663Z,2.00
2022-09-02T06:23:43.717Z,2.30
2022-09-02T06:26:13.994Z,2.00
2022-09-02T06:28:42.521Z,1.90
2022-09-02T06:31:16.572Z,2.20
2022-09-02T06:33:47.163Z,2.10
2022-09-02T06:36:19.443Z,2.10
2022-09-02T06:38:49.886Z,2.40
2022-09-02T06:41:27.087Z,2.30
2022-09-02T06:44:00.071Z,2.50
2022-09-02T06:46:32.487Z,2.20
2022-09-02T06:49:03.247Z,2.00
2022-09-02T06:51:35.713Z,3.30
2022-09-02T06:54:07.098Z,2.20
2022-09-02T06:56:37.709Z,1.70
2022-09-02T06:59:07.558Z,2.60
2022-09-02T07:01:43.600Z,2.10
2022-09-02T07:04:30.900Z,2.20
2022-09-02T07:06:59.477Z,2.30
2022-09-02T07:09:32.771Z,2.00
2022-09-02T07:12:19.816Z,2.30
2022-09-02T07:14:57.787Z,2.60
2022-09-02T07:17:30.631Z,2.40
2022-09-02T07:20:11.199Z,2.20
2022-09-02T07:22:59.563Z,2.40
2022-09-02T07:25:29.042Z,2.50
2022-09-02T07:27:57.306Z,2.20
2022-09-02T07:30:25.841Z,2.20
2022-09-02T07:33:00.027Z,2.60
2022-09-02T07:35:29.783Z,2.40
2022-09-02T07:37:58.374Z,3.30
2022-09-02T07:40:27.314Z,3.20
2022-09-02T07:45:26.179Z,2.90
2022-09-02T07:47:55.245Z,3.70
2022-09-02T07:50:27.200Z,3.50
2022-09-02T07:52:57.874Z,3.60
2022-09-02T07:55:27.186Z,3.30
2022-09-02T07:57:55.675Z,3.30
2022-09-02T08:00:27.763Z,2.80
2022-09-02T08:02:59.385Z,2.70
2022-09-02T08:05:32.660Z,3.40
2022-09-02T08:08:01.307Z,3.00
2022-09-02T08:10:30.344Z,2.80
2022-09-02T08:13:02.706Z,2.90
2022-09-02T08:15:31.254Z,3.40
2022-09-02T08:18:00.481Z,2.90
2022-09-02T08:20:30.640Z,3.10
2022-09-02T08:23:10.751Z,3.40
2022-09-02T08:25:47.523Z,3.70
2022-09-02T08:28:16.038Z,3.40
2022-09-02T08:30:43.997Z,3.20
2022-09-02T08:33:12.549Z,4.10
2022-09-02T08:35:40.787Z,4.80
2022-09-02T08:38:08.947Z,4.80
2022-09-02T08:40:41.928Z,5.30
2022-09-02T08:43:38.562Z,5.70
2022-09-02T08:46:11.399Z,5.90
2022-09-02T08:48:53.252Z,5.40
2022-09-02T08:51:37.441Z,5.00
2022-09-02T08:54:17.517Z,6.30
2022-09-02T08:56:45.694Z,6.10
2022-09-02T08:59:16.152Z,6.00
2022-09-02T09:02:02.078Z,6.50
2022-09-02T09:04:58.276Z,6.60
2022-09-02T09:07:41.242Z,6.50
2022-09-02T09:10:29.785Z,6.60
2022-09-02T09:13:29.087Z,7.50
2022-09-02T09:16:32.493Z,7.20
2022-09-02T09:19:09.558Z,8.40
2022-09-02T09:21:39.761Z,8.30
2022-09-02T09:24:36.970Z,6.30
2022-09-02T09:27:12.704Z,6.70
2022-09-02T09:29:40.762Z,8.00
2022-09-02T09:32:36.765Z,9.00
2022-09-02T09:35:10.407Z,11.20
2022-09-02T09:37:47.217Z,11.30
2022-09-02T09:40:18.429Z,10.20
2022-09-02T09:42:50.200Z,7.40
2022-09-02T09:45:26.055Z,7.00
2022-09-02T09:48:31.853Z,7.80
2022-09-02T09:51:00.077Z,7.30
2022-09-02T09:53:34.413Z,6.40
2022-09-02T09:56:16.175Z,7.50
2022-09-02T09:58:49.025Z,7.10
2022-09-02T10:01:17.592Z,6.70
2022-09-02T10:03:54.687Z,7.50
2022-09-02T10:06:25.774Z,8.00
2022-09-02T10:09:02.509Z,8.90
2022-09-02T10:11:37.978Z,7.20
2022-09-02T10:14:11.755Z,7.40
2022-09-02T10:16:58.577Z,7.50
2022-09-02T10:19:51.733Z,6.90
2022-09-02T10:22:22.759Z,7.70
2022-09-02T10:25:12.038Z,8.00
2022-09-02T10:28:07.270Z,7.90
2022-09-02T10:30:47.203Z,9.00
2022-09-02T10:33:37.165Z,7.60
2022-09-02T10:36:31.659Z,9.80
2022-09-02T10:39:26.163Z,9.20
2022-09-02T10:42:03.028Z,9.60
2022-09-02T10:44:41.453Z,8.60
2022-09-02T10:47:37.443Z,9.90
2022-09-02T10:50:50.058Z,10.00
2022-09-02T10:53:32.929Z,9.20
2022-09-02T10:56:18.156Z,9.00
2022-09-02T10:59:06.225Z,9.90
2022-09-02T11:02:00.022Z,7.70
2022-09-02T11:04:34.079Z,9.30
2022-09-02T11:07:06.005Z,8.80
2022-09-02T11:09:38.952Z,9.30
2022-09-02T11:12:17.459Z,9.70
2022-09-02T11:14:48.759Z,9.40
2022-09-02T11:17:29.027Z,9.10
2022-09-02T11:20:09.582Z,10.50
2022-09-02T11:22:39.121Z,8.70
2022-09-02T11:25:27.343Z,10.90
2022-09-02T11:28:27.917Z,9.60
2022-09-02T11:31:01.527Z,10.80
2022-09-02T11:33:56.286Z,9.70
2022-09-02T11:36:26.487Z,10.00
2022-09-02T11:39:08.551Z,8.70
2022-09-02T11:41:55.471Z,10.70
2022-09-02T11:44:52.758Z,9.00
2022-09-02T11:47:27.780Z,8.30
2022-09-02T11:50:38.789Z,9.60
2022-09-02T11:53:20.759Z,9.40
2022-09-02T11:55:57.948Z,11.80
2022-09-02T11:58:41.964Z,11.00
2022-09-02T12:01:16.265Z,10.00
2022-09-02T12:07:20.877Z,11.70
2022-09-02T12:09:56.766Z,11.90
2022-09-02T12:12:36.697Z,12.50
2022-09-02T12:15:05.481Z,12.90
2022-09-02T12:17:37.639Z,13.60
2022-09-02T12:20:09.920Z,13.00
2022-09-02T12:22:42.020Z,10.50
2022-09-02T12:25:26.963Z,10.90
2022-09-02T12:28:18.893Z,8.90
2022-09-02T12:31:10.423Z,11.00
2022-09-02T12:33:49.310Z,11.50
2022-09-02T12:36:36.736Z,12.70
2022-09-02T12:39:22.922Z,10.70
2022-09-02T12:42:21.332Z,10.30
2022-09-02T12:45:28.175Z,10.30
2022-09-02T12:48:30.425Z,10.80
2022-09-02T12:51:08.604Z,10.50
2022-09-02T12:53:46.835Z,11.90
2022-09-02T12:56:24.222Z,12.10
2022-09-02T12:59:02.264Z,12.10
2022-09-02T13:02:03.942Z,11.80
2022-09-02T13:05:02.294Z,10.30
2022-09-02T13:07:33.286Z,11.20
2022-09-02T13:10:16.410Z,11.90
2022-09-02T13:13:08.765Z,10.90
2022-09-02T13:16:04.684Z,11.30
2022-09-02T13:18:56.105Z,11.40
2022-09-02T13:21:52.065Z,10.90
2022-09-02T13:24:25.939Z,11.20
2022-09-02T13:27:16.422Z,11.40
2022-09-02T13:29:54.020Z,10.90
2022-09-02T13:32:28.964Z,10.50
2022-09-02T13:35:02.357Z,11.30
2022-09-02T13:37:40.979Z,11.10
2022-09-02T13:40:25.315Z,11.20
2022-09-02T13:42:56.656Z,10.60
2022-09-02T13:45:27.242Z,10.90
2022-09-02T13:47:58.978Z,10.70
2022-09-02T13:50:30.018Z,9.30
2022-09-02T13:53:45.131Z,9.80
2022-09-02T13:55:55.492Z,9.90
2022-09-02T13:58:29.458Z,10.90
2022-09-02T14:01:02.348Z,10.10
2022-09-02T14:03:33.054Z,9.20
2022-09-02T14:06:01.838Z,9.90
2022-09-02T14:08:31.579Z,9.70
2022-09-02T14:11:07.414Z,8.80
2022-09-02T14:13:37.165Z,9.20
2022-09-02T14:16:25.424Z,10.00
2022-09-02T14:19:27.080Z,9.70
2022-09-02T14:21:57.964Z,10.90
2022-09-02T14:24:36.996Z,10.90
2022-09-02T14:27:17.671Z,11.10
2022-09-02T14:29:48.243Z,10.60
2022-09-02T14:32:23.122Z,8.90
2022-09-02T14:35:17.564Z,9.30
2022-09-02T14:37:59.438Z,8.90
2022-09-02T14:40:45.439Z,8.70
2022-09-02T14:43:17.540Z,8.60
2022-09-02T14:45:50.400Z,8.50
2022-09-02T14:48:25.230Z,10.10
2022-09-02T14:51:02.990Z,8.90
2022-09-02T14:53:32.095Z,10.00
2022-09-02T14:56:01.220Z,10.20
2022-09-02T14:58:30.115Z,10.00
2022-09-02T15:01:00.765Z,9.70
2022-09-02T15:03:31.004Z,9.80
2022-09-02T15:05:59.254Z,9.40
2022-09-02T15:08:27.351Z,9.60
2022-09-02T15:10:59.229Z,10.10
2022-09-02T15:13:32.800Z,9.00
2022-09-02T15:16:01.932Z,10.40
2022-09-02T15:18:30.258Z,8.40
2022-09-02T15:20:58.177Z,8.90
2022-09-02T15:23:27.403Z,10.00
2022-09-02T15:25:56.709Z,10.70
2022-09-02T15:28:24.926Z,9.00
2022-09-02T15:31:00.192Z,11.60
2022-09-02T15:33:29.117Z,11.70
2022-09-02T15:36:08.783Z,12.30
2022-09-02T15:38:37.941Z,13.40
2022-09-02T15:41:18.846Z,13.40
2022-09-02T15:43:48.498Z,12.00
2022-09-02T15:46:26.052Z,14.90
2022-09-02T15:48:57.926Z,13.70
2022-09-02T15:51:30.156Z,12.70
2022-09-02T15:54:01.121Z,14.40
2022-09-02T15:56:31.445Z,14.70
2022-09-02T15:59:02.643Z,13.20
2022-09-02T16:01:33.222Z,13.00
2022-09-02T16:04:02.653Z,13.50
2022-09-02T16:06:33.258Z,13.40
2022-09-02T16:09:01.465Z,13.90
2022-09-02T16:11:29.784Z,13.80
2022-09-02T16:13:57.771Z,13.50
2022-09-02T16:16:26.082Z,14.20
2022-09-02T16:18:54.795Z,13.50
2022-09-02T16:21:23.488Z,12.90
2022-09-02T16:23:52.502Z,12.40
2022-09-02T16:26:32.180Z,12.30
2022-09-02T16:29:03.732Z,13.00
2022-09-02T16:31:34.417Z,11.50
2022-09-02T16:34:06.066Z,12.70
2022-09-02T16:36:38.342Z,12.70
2022-09-02T16:39:07.851Z,12.30
2022-09-02T16:41:43.760Z,11.50
2022-09-02T16:44:17.859Z,12.60
2022-09-02T16:46:47.628Z,12.50
2022-09-02T16:49:18.566Z,12.00
2022-09-02T16:51:48.273Z,12.50
2022-09-02T16:54:21.317Z,12.80
2022-09-02T16:57:01.356Z,13.80
2022-09-02T16:59:31.730Z,12.70
2022-09-02T17:01:59.755Z,13.10
2022-09-02T17:04:27.842Z,13.30
2022-09-02T17:06:57.737Z,13.00
2022-09-02T17:09:25.776Z,13.30
2022-09-02T17:11:54.176Z,13.80
2022-09-02T17:14:22.521Z,13.20
2022-09-02T17:16:51.571Z,13.20
2022-09-02T17:19:21.820Z,13.00
2022-09-02T17:21:54.935Z,12.30
2022-09-02T17:24:27.911Z,13.20
2022-09-02T17:26:56.200Z,12.50
2022-09-02T17:29:49.667Z,12.30
2022-09-02T17:32:19.726Z,13.90
2022-09-02T17:34:49.822Z,12.90
2022-09-02T17:37:18.009Z,12.20
2022-09-02T17:39:46.721Z,12.30
2022-09-02T17:42:15.445Z,13.20
2022-09-02T17:44:44.053Z,15.20
2022-09-02T17:47:15.451Z,15.90
2022-09-02T17:49:44.770Z,21.20
2022-09-02T17:52:16.087Z,20.40
2022-09-02T17:54:46.062Z,17.90
2022-09-02T17:57:53.527Z,15.70
2022-09-02T18:00:22.624Z,18.00
2022-09-02T18:03:16.083Z,15.70
2022-09-02T18:06:10.781Z,19.20
2022-09-02T18:09:19.072Z,16.80
2022-09-02T18:11:47.146Z,18.10
2022-09-02T18:14:51.890Z,18.40
2022-09-02T18:17:37.910Z,15.50
2022-09-02T18:20:36.388Z,16.70
2022-09-02T18:23:32.065Z,16.50
2022-09-02T18:26:30.507Z,15.40
2022-09-02T18:29:10.392Z,14.10
2022-09-02T18:32:05.854Z,13.20
2022-09-02T18:34:55.293Z,13.70
2022-09-02T18:38:07.374Z,14.20
2022-09-02T18:40:52.501Z,12.50
2022-09-02T18:43:35.073Z,14.00
2022-09-02T18:46:05.441Z,14.30
2022-09-02T18:48:36.231Z,14.10
2022-09-02T18:51:25.264Z,12.30
2022-09-02T18:54:02.169Z,14.60
2022-09-02T18:56:36.480Z,14.40
2022-09-02T18:59:16.657Z,13.00
2022-09-02T19:01:49.570Z,12.50
2022-09-02T19:04:18.249Z,14.30
2022-09-02T19:06:48.255Z,14.20
2022-09-02T19:09:26.019Z,14.20
2022-09-02T19:11:53.907Z,15.30
2022-09-02T19:14:27.726Z,15.20
2022-09-02T19:16:58.212Z,14.50
2022-09-02T19:19:29.683Z,14.40
2022-09-02T19:22:11.173Z,13.90
2022-09-02T19:24:57.260Z,13.00
2022-09-02T19:27:32.432Z,12.60
2022-09-02T19:30:10.621Z,13.20
2022-09-02T19:32:43.841Z,14.00
2022-09-02T19:35:16.828Z,13.70
2022-09-02T19:37:47.624Z,15.60
2022-09-02T19:40:33.326Z,12.70
2022-09-02T19:43:03.483Z,13.00
2022-09-02T19:45:37.590Z,13.70
2022-09-02T19:48:09.921Z,14.30
2022-09-02T19:50:42.376Z,14.60
2022-09-02T19:53:16.494Z,13.70
2022-09-02T19:55:45.073Z,13.10
2022-09-02T19:58:13.049Z,12.50
2022-09-02T20:00:44.851Z,12.70
2022-09-02T20:03:12.997Z,12.20
2022-09-02T20:05:41.470Z,12.00
2022-09-02T20:08:09.462Z,12.20
2022-09-02T20:10:38.873Z,13.00
2022-09-02T20:13:09.476Z,12.20
2022-09-02T20:15:38.228Z,13.10
2022-09-02T20:18:17.704Z,12.20
2022-09-02T20:20:49.070Z,12.90
2022-09-02T20:23:18.855Z,11.60
2022-09-02T20:26:19.416Z,12.80
2022-09-02T20:29:12.396Z,11.00
2022-09-02T20:32:26.413Z,10.80
2022-09-02T20:35:15.284Z,11.60
2022-09-02T20:37:51.040Z,11.80
2022-09-02T20:40:35.747Z,11.90
2022-09-02T20:43:28.443Z,11.00
2022-09-02T20:46:18.399Z,10.50
2022-09-02T20:49:22.916Z,11.90
2022-09-02T20:52:01.103Z,10.70
2022-09-02T20:54:40.527Z,11.50
2022-09-02T20:57:34.057Z,11.80
2022-09-02T21:00:12.376Z,13.20
2022-09-02T21:03:11.150Z,11.20
2022-09-02T21:05:44.150Z,12.00
2022-09-02T21:08:24.679Z,12.50
2022-09-02T21:10:56.994Z,11.70
2022-09-02T21:13:46.909Z,11.60
2022-09-02T21:16:21.125Z,13.40
2022-09-02T21:19:07.935Z,11.70
2022-09-02T21:22:17.830Z,12.20
2022-09-02T21:25:03.530Z,11.90
2022-09-02T21:27:49.096Z,12.50
2022-09-02T21:30:23.308Z,12.90
2022-09-02T21:33:05.575Z,13.40
2022-09-02T21:35:51.661Z,12.40
2022-09-02T21:38:30.003Z,10.70
2022-09-02T21:41:41.455Z,12.00
2022-09-02T21:44:28.021Z,11.80
2022-09-02T21:47:24.708Z,11.00
2022-09-02T21:50:19.933Z,12.70
2022-09-02T21:53:04.667Z,12.60
2022-09-02T21:55:41.516Z,12.20
2022-09-02T21:58:27.565Z,12.60
2022-09-02T22:01:09.660Z,13.10
2022-09-02T22:03:44.764Z,14.20
2022-09-02T22:06:38.211Z,12.90
2022-09-02T22:09:08.642Z,13.40
2022-09-02T22:11:43.366Z,13.30
2022-09-02T22:14:44.250Z,13.00
2022-09-02T22:17:35.445Z,12.50
2022-09-02T22:20:07.677Z,13.40
2022-09-02T22:22:42.229Z,11.10
2022-09-02T22:25:17.046Z,11.50
2022-09-02T22:27:52.100Z,13.10
2022-09-02T22:30:20.552Z,11.00
2022-09-02T22:33:13.888Z,11.00
2022-09-02T22:35:55.448Z,10.30
2022-09-02T22:38:47.301Z,9.50
2022-09-02T22:41:33.500Z,11.10
2022-09-02T22:44:13.618Z,10.30
2022-09-02T22:47:03.201Z,10.70
2022-09-02T22:49:54.691Z,11.20
2022-09-02T22:52:54.742Z,10.10
2022-09-02T22:55:22.572Z,9.60
2022-09-02T22:58:02.646Z,10.10
2022-09-02T23:00:39.558Z,10.50
2022-09-02T23:03:32.648Z,11.10
2022-09-02T23:06:03.682Z,9.80
2022-09-02T23:08:35.647Z,12.30
2022-09-02T23:11:13.520Z,10.40
2022-09-02T23:14:01.061Z,10.50
2022-09-02T23:16:53.543Z,10.40
2022-09-02T23:19:46.086Z,9.10
2022-09-02T23:22:25.232Z,9.00
2022-09-02T23:25:13.566Z,9.30
2022-09-02T23:27:53.188Z,8.80
2022-09-02T23:30:21.193Z,8.90
2022-09-02T23:32:55.020Z,8.80
2022-09-02T23:35:33.392Z,8.60
2022-09-02T23:38:23.904Z,8.30
2022-09-02T23:40:58.409Z,9.70
2022-09-02T23:43:26.377Z,8.00
2022-09-02T23:45:56.264Z,9.00
2022-09-02T23:48:56.544Z,8.50
2022-09-02T23:51:39.989Z,8.80
2022-09-02T23:54:14.034Z,8.80
2022-09-02T23:57:18.523Z,8.50
